SAS983 EKCH-RJAA
Flight info
| Callsign | SAS983 |
|---|---|
| Flight time | N/A |
| Altitude | 37000 |
| Route | KEMAX DCT NEFYN N851 PELUP Z226 NILUG DCT UXETI DCT PENIV Y81 XEVLO M130 GATRI/K0922F390 M130 ODIMA T567 NRM L168 RUKOD/K0928F410 L168 IGROD/N0491F410 Y301 VIROP/N0489F430 Y307 VIKET/N0487F410 Y303 ENTAK/N0489F430 Y30 SWAMP |
| Aircraft | A359/H-SDE2E3GHIJ3J4J5LM1ORWXY/LB1D1 |
Departure
| Time | 2026-05-07 18:10 |
|---|---|
| Airport | Copenhagen Kastrup Airport (EKCH) |
Arrival
| Time | N/A |
|---|---|
| Airport | Narita International Airport (RJAA) |
| Time | Latitude | Longitude | Altitude | Speed | Heading |
|---|---|---|---|---|---|
| 2026-05-07 17:47 | 55.62422 | 12.64904 | 30 ft | 0 kts | 89° |
| 2026-05-07 17:59 | 55.62422 | 12.64903 | 30 ft | 0 kts | 89° |
| 2026-05-07 17:59 | 55.62422 | 12.64883 | 30 ft | 3 kts | 89° |
| 2026-05-07 17:59 | 55.62421 | 12.64847 | 30 ft | 3 kts | 89° |
| 2026-05-07 18:00 | 55.62422 | 12.64814 | 30 ft | 3 kts | 112° |
| 2026-05-07 18:00 | 55.62432 | 12.64789 | 27 ft | 3 kts | 152° |
| 2026-05-07 18:00 | 55.62448 | 12.64778 | 29 ft | 2 kts | 172° |
| 2026-05-07 18:00 | 55.62460 | 12.64775 | 27 ft | 3 kts | 174° |
| 2026-05-07 18:01 | 55.62481 | 12.64773 | 27 ft | 3 kts | 179° |
| 2026-05-07 18:01 | 55.62494 | 12.64772 | 27 ft | 3 kts | 179° |
| 2026-05-07 18:01 | 55.62513 | 12.64772 | 30 ft | 0 kts | 179° |
| 2026-05-07 18:05 | 55.62475 | 12.64775 | 30 ft | 12 kts | 176° |
| 2026-05-07 18:05 | 55.62389 | 12.64783 | 30 ft | 13 kts | 177° |
| 2026-05-07 18:06 | 55.62295 | 12.64790 | 30 ft | 14 kts | 178° |
| 2026-05-07 18:06 | 55.62199 | 12.64754 | 30 ft | 15 kts | 210° |
| 2026-05-07 18:06 | 55.62111 | 12.64656 | 30 ft | 16 kts | 212° |
| 2026-05-07 18:06 | 55.62012 | 12.64542 | 30 ft | 17 kts | 214° |
| 2026-05-07 18:07 | 55.61952 | 12.64365 | 30 ft | 17 kts | 257° |
| 2026-05-07 18:07 | 55.61925 | 12.64153 | 30 ft | 15 kts | 251° |
| 2026-05-07 18:07 | 55.61876 | 12.64079 | 30 ft | 9 kts | 201° |
| 2026-05-07 18:07 | 55.61815 | 12.64076 | 30 ft | 9 kts | 175° |
| 2026-05-07 18:08 | 55.61770 | 12.64082 | 30 ft | 0 kts | 177° |
| 2026-05-07 18:08 | 55.61739 | 12.64084 | 31 ft | 9 kts | 177° |
| 2026-05-07 18:08 | 55.61654 | 12.64082 | 33 ft | 13 kts | 193° |
| 2026-05-07 18:09 | 55.61576 | 12.63990 | 32 ft | 15 kts | 220° |
| 2026-05-07 18:09 | 55.61400 | 12.63714 | 31 ft | 66 kts | 221° |
| 2026-05-07 18:09 | 55.60889 | 12.62926 | 31 ft | 127 kts | 222° |
| 2026-05-07 18:09 | 55.60115 | 12.61720 | 295 ft | 155 kts | 220° |
| 2026-05-07 18:10 | 55.59331 | 12.60472 | 1027 ft | 150 kts | 224° |
| 2026-05-07 18:10 | 55.58525 | 12.59182 | 1402 ft | 164 kts | 222° |
| 2026-05-07 18:10 | 55.57615 | 12.57804 | 1591 ft | 183 kts | 222° |
| 2026-05-07 18:10 | 55.56492 | 12.56480 | 1782 ft | 205 kts | 206° |
| 2026-05-07 18:11 | 55.55087 | 12.55500 | 1954 ft | 229 kts | 200° |
| 2026-05-07 18:11 | 55.53517 | 12.54528 | 2222 ft | 249 kts | 200° |
| 2026-05-07 18:11 | 55.51847 | 12.53487 | 2701 ft | 258 kts | 200° |
| 2026-05-07 18:11 | 55.50140 | 12.52410 | 3318 ft | 262 kts | 200° |
| 2026-05-07 18:12 | 55.48415 | 12.51313 | 3951 ft | 266 kts | 200° |
| 2026-05-07 18:12 | 55.46662 | 12.50226 | 4599 ft | 269 kts | 198° |
| 2026-05-07 18:12 | 55.44815 | 12.49595 | 5242 ft | 272 kts | 184° |
| 2026-05-07 18:12 | 55.42934 | 12.49930 | 5887 ft | 273 kts | 161° |
| 2026-05-07 18:13 | 55.41338 | 12.51655 | 6550 ft | 272 kts | 131° |
| 2026-05-07 18:13 | 55.40465 | 12.54538 | 7168 ft | 269 kts | 100° |
| 2026-05-07 18:13 | 55.40548 | 12.57790 | 7767 ft | 268 kts | 71° |
| 2026-05-07 18:13 | 55.41533 | 12.60543 | 8347 ft | 270 kts | 42° |
| 2026-05-07 18:14 | 55.43052 | 12.62502 | 8983 ft | 272 kts | 33° |
| 2026-05-07 18:14 | 55.44641 | 12.64281 | 9565 ft | 275 kts | 33° |
| 2026-05-07 18:14 | 55.46284 | 12.66135 | 10181 ft | 278 kts | 34° |
| 2026-05-07 18:14 | 55.47938 | 12.68032 | 10506 ft | 291 kts | 34° |
| 2026-05-07 18:15 | 55.49673 | 12.70044 | 10722 ft | 306 kts | 34° |
| 2026-05-07 18:15 | 55.51494 | 12.72170 | 10935 ft | 321 kts | 34° |
| 2026-05-07 18:15 | 55.53393 | 12.74395 | 11143 ft | 335 kts | 34° |
| 2026-05-07 18:15 | 55.55373 | 12.76721 | 11338 ft | 347 kts | 34° |
| 2026-05-07 18:16 | 55.57414 | 12.79123 | 11571 ft | 358 kts | 34° |
| 2026-05-07 18:16 | 55.59504 | 12.81588 | 11954 ft | 363 kts | 34° |
| 2026-05-07 18:16 | 55.61617 | 12.84082 | 12417 ft | 367 kts | 33° |
| 2026-05-07 18:16 | 55.63747 | 12.86601 | 12873 ft | 370 kts | 33° |
| 2026-05-07 18:17 | 55.65888 | 12.89137 | 13384 ft | 371 kts | 33° |
| 2026-05-07 18:17 | 55.68014 | 12.91658 | 13830 ft | 374 kts | 33° |
| 2026-05-07 18:17 | 55.70187 | 12.94238 | 14201 ft | 378 kts | 33° |
| 2026-05-07 18:17 | 55.72380 | 12.96845 | 14616 ft | 381 kts | 33° |
| 2026-05-07 18:18 | 55.74618 | 12.99510 | 15014 ft | 384 kts | 33° |
| 2026-05-07 18:18 | 55.76804 | 13.02118 | 15417 ft | 387 kts | 33° |
| 2026-05-07 18:18 | 55.79084 | 13.04840 | 15842 ft | 389 kts | 33° |
| 2026-05-07 18:18 | 55.81306 | 13.07498 | 16223 ft | 392 kts | 33° |
| 2026-05-07 18:19 | 55.83609 | 13.10256 | 16603 ft | 395 kts | 33° |
| 2026-05-07 18:19 | 55.85902 | 13.13006 | 17004 ft | 398 kts | 33° |
| 2026-05-07 18:19 | 55.88178 | 13.15741 | 17391 ft | 402 kts | 33° |
| 2026-05-07 18:19 | 55.90535 | 13.18574 | 17765 ft | 405 kts | 33° |
| 2026-05-07 18:20 | 55.92878 | 13.21397 | 18148 ft | 408 kts | 32° |
| 2026-05-07 18:20 | 55.95233 | 13.24239 | 18520 ft | 410 kts | 33° |
| 2026-05-07 18:20 | 55.97601 | 13.27099 | 18858 ft | 412 kts | 32° |
| 2026-05-07 18:20 | 56.00003 | 13.30006 | 19195 ft | 414 kts | 33° |
| 2026-05-07 18:21 | 56.02370 | 13.32875 | 19549 ft | 416 kts | 33° |
| 2026-05-07 18:21 | 56.04769 | 13.35788 | 19893 ft | 418 kts | 32° |
| 2026-05-07 18:21 | 56.07179 | 13.38718 | 20242 ft | 419 kts | 33° |
| 2026-05-07 18:21 | 56.09567 | 13.41624 | 20573 ft | 421 kts | 33° |
| 2026-05-07 18:22 | 56.11997 | 13.44587 | 20896 ft | 423 kts | 33° |
| 2026-05-07 18:22 | 56.13638 | 13.46595 | 21137 ft | 424 kts | 33° |
| 2026-05-07 18:22 | 56.16837 | 13.50673 | 21550 ft | 427 kts | 34° |
| 2026-05-07 18:22 | 56.19239 | 13.53844 | 21874 ft | 429 kts | 35° |
| 2026-05-07 18:23 | 56.21637 | 13.57039 | 22179 ft | 431 kts | 35° |
| 2026-05-07 18:23 | 56.24057 | 13.60261 | 22492 ft | 433 kts | 35° |
| 2026-05-07 18:23 | 56.26521 | 13.63532 | 22785 ft | 435 kts | 35° |
| 2026-05-07 18:23 | 56.28931 | 13.66722 | 23089 ft | 437 kts | 35° |
| 2026-05-07 18:24 | 56.31385 | 13.69965 | 23391 ft | 439 kts | 35° |
| 2026-05-07 18:24 | 56.33857 | 13.73232 | 23689 ft | 441 kts | 35° |
| 2026-05-07 18:24 | 56.36334 | 13.76508 | 23936 ft | 442 kts | 35° |
| 2026-05-07 18:24 | 56.38815 | 13.79794 | 24196 ft | 444 kts | 35° |
| 2026-05-07 18:25 | 56.41302 | 13.83094 | 24451 ft | 445 kts | 35° |
| 2026-05-07 18:25 | 56.43806 | 13.86423 | 24731 ft | 446 kts | 35° |
| 2026-05-07 18:25 | 56.46308 | 13.89756 | 24971 ft | 447 kts | 35° |
| 2026-05-07 18:25 | 56.48819 | 13.93105 | 25233 ft | 449 kts | 35° |
| 2026-05-07 18:26 | 56.51336 | 13.96470 | 25491 ft | 450 kts | 35° |
| 2026-05-07 18:26 | 56.53857 | 13.99845 | 25753 ft | 452 kts | 35° |
| 2026-05-07 18:26 | 56.56387 | 14.03237 | 26010 ft | 453 kts | 35° |
| 2026-05-07 18:26 | 56.58923 | 14.06644 | 26246 ft | 455 kts | 35° |
| 2026-05-07 18:27 | 56.61470 | 14.10071 | 26519 ft | 457 kts | 35° |
| 2026-05-07 18:27 | 56.64026 | 14.13518 | 26825 ft | 458 kts | 35° |
| 2026-05-07 18:27 | 56.66591 | 14.16981 | 27100 ft | 459 kts | 35° |
| 2026-05-07 18:27 | 56.69154 | 14.20448 | 27373 ft | 461 kts | 35° |
| 2026-05-07 18:28 | 56.71735 | 14.23945 | 27662 ft | 463 kts | 35° |
| 2026-05-07 18:28 | 56.74317 | 14.27450 | 27952 ft | 465 kts | 35° |
| 2026-05-07 18:28 | 56.76909 | 14.30974 | 28261 ft | 466 kts | 35° |
| 2026-05-07 18:28 | 56.79516 | 14.34525 | 28560 ft | 468 kts | 36° |
| 2026-05-07 18:29 | 56.82126 | 14.38087 | 28860 ft | 470 kts | 36° |
| 2026-05-07 18:29 | 56.84749 | 14.41673 | 29108 ft | 473 kts | 35° |
| 2026-05-07 18:29 | 56.87391 | 14.45290 | 29330 ft | 476 kts | 35° |
| 2026-05-07 18:29 | 56.90042 | 14.48927 | 29630 ft | 477 kts | 35° |
| 2026-05-07 18:30 | 56.92702 | 14.52583 | 29931 ft | 479 kts | 35° |
| 2026-05-07 18:30 | 56.95370 | 14.56257 | 30222 ft | 481 kts | 35° |
| 2026-05-07 18:30 | 56.98046 | 14.59950 | 30455 ft | 483 kts | 35° |
| 2026-05-07 18:30 | 57.00732 | 14.63661 | 30715 ft | 484 kts | 35° |
| 2026-05-07 18:31 | 57.03425 | 14.67391 | 30973 ft | 485 kts | 35° |
| 2026-05-07 18:31 | 57.06115 | 14.71122 | 31234 ft | 487 kts | 35° |
| 2026-05-07 18:31 | 57.08796 | 14.74848 | 31420 ft | 490 kts | 35° |
| 2026-05-07 18:31 | 57.11513 | 14.78631 | 31662 ft | 490 kts | 35° |
| 2026-05-07 18:32 | 57.14228 | 14.82420 | 32042 ft | 488 kts | 35° |
| 2026-05-07 18:32 | 57.16924 | 14.86190 | 32423 ft | 487 kts | 35° |
| 2026-05-07 18:32 | 57.19616 | 14.89961 | 32768 ft | 485 kts | 35° |
| 2026-05-07 18:32 | 57.22300 | 14.93727 | 33106 ft | 484 kts | 35° |
| 2026-05-07 18:33 | 57.24980 | 14.97496 | 33444 ft | 483 kts | 35° |
| 2026-05-07 18:33 | 57.27649 | 15.01255 | 33783 ft | 482 kts | 35° |
| 2026-05-07 18:33 | 57.30307 | 15.05006 | 34139 ft | 481 kts | 34° |
| 2026-05-07 18:33 | 57.32967 | 15.08766 | 34329 ft | 482 kts | 34° |
| 2026-05-07 18:34 | 57.35646 | 15.12556 | 34483 ft | 484 kts | 34° |
| 2026-05-07 18:34 | 57.38319 | 15.16349 | 34697 ft | 485 kts | 35° |
| 2026-05-07 18:34 | 57.40997 | 15.20155 | 34906 ft | 486 kts | 35° |
| 2026-05-07 18:34 | 57.43686 | 15.23985 | 35072 ft | 487 kts | 35° |
| 2026-05-07 18:35 | 57.46370 | 15.27815 | 35115 ft | 488 kts | 35° |
| 2026-05-07 18:35 | 57.51750 | 15.35514 | 35162 ft | 488 kts | 35° |
| 2026-05-07 18:35 | 57.54442 | 15.39379 | 35388 ft | 489 kts | 35° |
| 2026-05-07 18:36 | 57.57132 | 15.43246 | 35572 ft | 490 kts | 35° |
| 2026-05-07 18:36 | 57.59832 | 15.47131 | 35745 ft | 491 kts | 35° |
| 2026-05-07 18:36 | 57.62538 | 15.51029 | 35955 ft | 492 kts | 35° |
| 2026-05-07 18:36 | 57.65247 | 15.54950 | 36150 ft | 492 kts | 35° |
| 2026-05-07 18:37 | 57.67939 | 15.58856 | 36337 ft | 493 kts | 35° |
| 2026-05-07 18:37 | 57.70664 | 15.62819 | 36524 ft | 494 kts | 36° |
| 2026-05-07 18:37 | 57.73380 | 15.66777 | 36714 ft | 495 kts | 36° |
| 2026-05-07 18:37 | 57.76094 | 15.70737 | 36896 ft | 495 kts | 36° |
| 2026-05-07 18:38 | 57.78816 | 15.74715 | 37078 ft | 496 kts | 36° |
| 2026-05-07 18:38 | 57.84263 | 15.82698 | 37143 ft | 497 kts | 36° |
| 2026-05-07 18:39 | 57.89699 | 15.90697 | 37145 ft | 497 kts | 36° |
| 2026-05-07 18:39 | 57.95145 | 15.98731 | 37145 ft | 497 kts | 36° |
| 2026-05-07 18:40 | 58.00547 | 16.06744 | 37146 ft | 497 kts | 36° |
| 2026-05-07 18:40 | 58.05983 | 16.14839 | 37143 ft | 499 kts | 36° |
| 2026-05-07 18:41 | 58.11466 | 16.23035 | 37148 ft | 500 kts | 36° |
| 2026-05-07 18:41 | 58.16883 | 16.31162 | 37149 ft | 500 kts | 36° |
| 2026-05-07 18:42 | 58.22323 | 16.39357 | 37153 ft | 500 kts | 36° |
| 2026-05-07 18:42 | 58.27623 | 16.47940 | 37160 ft | 503 kts | 44° |
| 2026-05-07 18:43 | 58.32066 | 16.58311 | 37156 ft | 507 kts | 50° |
| 2026-05-07 18:43 | 58.36296 | 16.69090 | 37152 ft | 508 kts | 51° |
| 2026-05-07 18:44 | 58.40479 | 16.79947 | 37156 ft | 508 kts | 51° |
| 2026-05-07 18:44 | 58.44662 | 16.90812 | 37159 ft | 508 kts | 51° |
| 2026-05-07 18:45 | 58.49093 | 17.01276 | 37168 ft | 505 kts | 41° |
| 2026-05-07 18:45 | 58.54430 | 17.09990 | 37156 ft | 504 kts | 34° |
| 2026-05-07 18:46 | 58.59997 | 17.18158 | 37158 ft | 504 kts | 34° |
| 2026-05-07 18:46 | 58.65580 | 17.26265 | 37160 ft | 504 kts | 34° |
| 2026-05-07 18:47 | 58.71151 | 17.34466 | 37160 ft | 504 kts | 34° |
| 2026-05-07 18:47 | 58.76703 | 17.42727 | 37160 ft | 506 kts | 34° |
| 2026-05-07 18:48 | 58.82266 | 17.51051 | 37161 ft | 507 kts | 34° |
| 2026-05-07 18:48 | 58.87828 | 17.59410 | 37162 ft | 507 kts | 34° |
| 2026-05-07 18:49 | 58.92491 | 17.66441 | 37162 ft | 507 kts | 34° |
| 2026-05-07 18:49 | 58.98002 | 17.74782 | 37170 ft | 507 kts | 34° |
| 2026-05-07 18:50 | 59.03579 | 17.83257 | 37163 ft | 510 kts | 34° |
| 2026-05-07 18:50 | 59.09165 | 17.91783 | 37164 ft | 510 kts | 34° |
| 2026-05-07 18:51 | 59.14735 | 18.00323 | 37161 ft | 510 kts | 34° |
| 2026-05-07 18:51 | 59.20317 | 18.08916 | 37179 ft | 510 kts | 34° |
| 2026-05-07 18:52 | 59.25898 | 18.17544 | 37161 ft | 513 kts | 34° |
| 2026-05-07 18:52 | 59.31496 | 18.26236 | 37163 ft | 514 kts | 34° |
| 2026-05-07 18:53 | 59.37091 | 18.34960 | 37162 ft | 514 kts | 34° |
| 2026-05-07 18:53 | 59.42677 | 18.43710 | 37157 ft | 514 kts | 34° |
| 2026-05-07 18:54 | 59.48271 | 18.52511 | 37179 ft | 516 kts | 34° |
| 2026-05-07 18:54 | 59.53875 | 18.61363 | 37173 ft | 517 kts | 34° |
| 2026-05-07 18:55 | 59.59484 | 18.70266 | 37173 ft | 517 kts | 34° |
| 2026-05-07 18:55 | 59.65082 | 18.79189 | 37170 ft | 517 kts | 34° |
| 2026-05-07 18:56 | 59.70686 | 18.88162 | 37190 ft | 518 kts | 34° |
| 2026-05-07 18:56 | 59.76277 | 18.97152 | 37177 ft | 519 kts | 34° |
| 2026-05-07 18:57 | 59.81883 | 19.06208 | 37177 ft | 519 kts | 34° |
| 2026-05-07 18:57 | 59.87478 | 19.15288 | 37177 ft | 519 kts | 34° |
| 2026-05-07 18:58 | 59.93069 | 19.24401 | 37220 ft | 519 kts | 35° |
| 2026-05-07 18:58 | 59.98623 | 19.33493 | 37179 ft | 520 kts | 35° |
| 2026-05-07 18:59 | 60.04209 | 19.42679 | 37179 ft | 520 kts | 35° |
| 2026-05-07 18:59 | 60.09777 | 19.51879 | 37179 ft | 520 kts | 35° |
| 2026-05-07 19:00 | 60.15346 | 19.61120 | 37179 ft | 520 kts | 35° |
| 2026-05-07 19:00 | 60.20921 | 19.70415 | 37183 ft | 521 kts | 35° |
| 2026-05-07 19:01 | 60.26496 | 19.79752 | 37184 ft | 521 kts | 35° |
| 2026-05-07 19:01 | 60.32091 | 19.89166 | 37183 ft | 521 kts | 35° |
| 2026-05-07 19:02 | 60.37603 | 19.98482 | 37183 ft | 521 kts | 35° |
| 2026-05-07 19:02 | 60.43159 | 20.07915 | 37193 ft | 521 kts | 35° |
| 2026-05-07 19:03 | 60.48696 | 20.17361 | 37181 ft | 520 kts | 36° |
| 2026-05-07 19:03 | 60.54221 | 20.26830 | 37183 ft | 520 kts | 36° |
| 2026-05-07 19:04 | 60.59746 | 20.36342 | 37180 ft | 520 kts | 36° |
| 2026-05-07 19:04 | 60.65271 | 20.45898 | 37181 ft | 521 kts | 36° |
| 2026-05-07 19:05 | 60.70786 | 20.55483 | 37186 ft | 521 kts | 36° |
| 2026-05-07 19:05 | 60.76305 | 20.65118 | 37181 ft | 522 kts | 36° |
| 2026-05-07 19:06 | 60.81808 | 20.74771 | 37178 ft | 522 kts | 36° |
| 2026-05-07 19:06 | 60.90070 | 20.89351 | 37216 ft | 522 kts | 36° |
| 2026-05-07 19:07 | 60.95563 | 20.99100 | 37176 ft | 523 kts | 36° |
| 2026-05-07 19:07 | 61.01027 | 21.08843 | 37181 ft | 523 kts | 37° |
| 2026-05-07 19:08 | 61.06515 | 21.18677 | 37183 ft | 523 kts | 37° |
| 2026-05-07 19:08 | 61.12000 | 21.28554 | 37174 ft | 523 kts | 37° |
| 2026-05-07 19:09 | 61.17487 | 21.38480 | 37173 ft | 524 kts | 37° |